Time,TemperatureF,DewpointF,PressureIn,WindDirection,WindDirectionDegrees,WindSpeedMPH,WindSpeedGustMPH,Humidity,HourlyPrecipIn,Conditions,Clouds,dailyrainin,SoftwareType,DateUTC
2013-01-29 00:01:00,49.9,49.1,30.06,West,270,4.0,5.0,97,0.00,,,0.00,WeatherCatV1.10B1784,2013-01-29 05:01:00,
2013-01-29 00:06:00,49.9,49.1,30.06,SW,227,5.0,5.0,97,0.00,,,0.00,WeatherCatV1.10B1784,2013-01-29 05:06:00,
2013-01-29 00:11:00,49.9,49.1,30.05,West,280,2.0,4.0,97,0.00,,,0.00,WeatherCatV1.10B1784,2013-01-29 05:11:00,
2013-01-29 00:16:00,50.0,49.2,30.05,WSW,258,3.0,5.0,97,0.00,,,0.00,WeatherCatV1.10B1784,2013-01-29 05:16:00,
2013-01-29 00:21:00,50.0,49.2,30.05,WSW,243,7.0,10.0,97,0.00,,,0.00,WeatherCatV1.10B1784,2013-01-29 05:21:00,
2013-01-29 00:26:00,50.0,49.2,30.05,West,270,4.0,7.0,97,0.00,,,0.00,WeatherCatV1.10B1784,2013-01-29 05:26:00,
2013-01-29 00:31:00,50.0,49.2,30.05,WSW,256,2.0,6.0,97,0.00,,,0.00,WeatherCatV1.10B1784,2013-01-29 05:31:00,
2013-01-29 00:36:00,49.9,49.1,30.05,West,276,1.0,4.0,97,0.00,,,0.00,WeatherCatV1.10B1784,2013-01-29 05:36:00,
2013-01-29 00:41:00,49.9,49.1,30.05,WSW,258,4.0,5.0,97,0.00,,,0.00,WeatherCatV1.10B1784,2013-01-29 05:41:00,
2013-01-29 00:46:00,49.9,49.1,30.05,WSW,258,3.0,6.0,97,0.00,,,0.00,WeatherCatV1.10B1784,2013-01-29 05:46:00,
2013-01-29 00:51:00,49.9,49.1,30.05,WSW,250,5.0,6.0,97,0.00,,,0.00,WeatherCatV1.10B1784,2013-01-29 05:51:00,
2013-01-29 00:56:00,49.9,49.1,30.05,WSW,257,2.0,5.0,97,0.00,,,0.00,WeatherCatV1.10B1784,2013-01-29 05:56:00,
2013-01-29 01:01:00,49.9,49.1,30.05,West,272,3.0,6.0,97,0.00,,,0.00,WeatherCatV1.10B1784,2013-01-29 06:01:00,
2013-01-29 01:06:00,50.0,49.2,30.05,WSW,252,6.0,6.0,97,0.00,,,0.00,WeatherCatV1.10B1784,2013-01-29 06:06:00,
2013-01-29 01:11:00,49.9,49.1,30.05,WSW,253,4.0,5.0,97,0.00,,,0.00,WeatherCatV1.10B1784,2013-01-29 06:11:00,
2013-01-29 01:16:00,50.0,49.2,30.05,West,271,4.0,5.0,97,0.00,,,0.00,WeatherCatV1.10B1784,2013-01-29 06:16:00,
2013-01-29 01:21:00,50.0,49.2,30.05,SW,232,5.0,6.0,97,0.00,,,0.00,WeatherCatV1.10B1784,2013-01-29 06:21:00,
2013-01-29 01:26:00,49.9,49.1,30.05,West,276,5.0,6.0,97,0.00,,,0.00,WeatherCatV1.10B1784,2013-01-29 06:26:00,
2013-01-29 01:31:00,49.9,49.1,30.05,WSW,248,4.0,5.0,97,0.00,,,0.00,WeatherCatV1.10B1784,2013-01-29 06:31:00,
2013-01-29 01:36:00,50.0,49.2,30.04,WSW,258,4.0,7.0,97,0.00,,,0.00,WeatherCatV1.10B1784,2013-01-29 06:36:00,
2013-01-29 01:41:00,50.0,49.2,30.04,WNW,284,5.0,5.0,97,0.00,,,0.00,WeatherCatV1.10B1784,2013-01-29 06:41:00,
2013-01-29 01:46:00,50.0,49.2,30.04,WSW,255,5.0,6.0,97,0.00,,,0.00,WeatherCatV1.10B1784,2013-01-29 06:46:00,
2013-01-29 01:51:00,50.0,49.2,30.05,West,274,3.0,6.0,97,0.00,,,0.00,WeatherCatV1.10B1784,2013-01-29 06:51:00,
2013-01-29 01:56:00,49.9,49.1,30.05,WSW,250,4.0,5.0,97,0.00,,,0.00,WeatherCatV1.10B1784,2013-01-29 06:56:00,
2013-01-29 02:01:00,49.9,49.1,30.05,West,260,3.0,6.0,97,0.00,,,0.00,WeatherCatV1.10B1784,2013-01-29 07:01:00,
2013-01-29 02:06:00,49.9,49.1,30.05,WSW,249,3.0,4.0,97,0.00,,,0.00,WeatherCatV1.10B1784,2013-01-29 07:06:00,
2013-01-29 02:11:00,49.9,49.1,30.05,West,259,3.0,5.0,97,0.00,,,0.00,WeatherCatV1.10B1784,2013-01-29 07:11:00,
2013-01-29 02:16:00,49.9,49.1,30.05,WSW,255,3.0,5.0,97,0.00,,,0.00,WeatherCatV1.10B1784,2013-01-29 07:16:00,
2013-01-29 02:21:00,50.0,49.2,30.05,West,269,3.0,6.0,97,0.00,,,0.00,WeatherCatV1.10B1784,2013-01-29 07:21:00,
2013-01-29 02:26:00,49.9,49.1,30.05,West,264,3.0,5.0,97,0.00,,,0.00,WeatherCatV1.10B1784,2013-01-29 07:26:00,
2013-01-29 02:31:00,49.9,49.1,30.05,WSW,256,3.0,6.0,97,0.00,,,0.00,WeatherCatV1.10B1784,2013-01-29 07:31:00,
2013-01-29 02:36:00,49.9,49.1,30.05,WSW,240,4.0,4.0,97,0.00,,,0.00,WeatherCatV1.10B1784,2013-01-29 07:36:00,
2013-01-29 02:41:00,49.9,49.1,30.05,WSW,253,4.0,5.0,97,0.00,,,0.00,WeatherCatV1.10B1784,2013-01-29 07:41:00,
2013-01-29 02:46:00,49.9,49.1,30.05,West,259,4.0,5.0,97,0.00,,,0.00,WeatherCatV1.10B1784,2013-01-29 07:46:00,
2013-01-29 02:51:00,49.9,49.1,30.05,WSW,255,4.0,5.0,97,0.00,,,0.00,WeatherCatV1.10B1784,2013-01-29 07:51:00,
2013-01-29 02:56:00,49.9,49.1,30.05,WSW,251,4.0,4.0,97,0.00,,,0.00,WeatherCatV1.10B1784,2013-01-29 07:56:00,
2013-01-29 03:01:00,49.9,49.1,30.05,West,271,3.0,4.0,97,0.00,,,0.00,WeatherCatV1.10B1784,2013-01-29 08:01:00,
2013-01-29 03:06:00,49.7,48.9,30.05,West,260,3.0,4.0,97,0.00,,,0.00,WeatherCatV1.10B1784,2013-01-29 08:06:00,
2013-01-29 03:11:00,49.7,48.9,30.04,WSW,252,4.0,5.0,97,0.00,,,0.00,WeatherCatV1.10B1784,2013-01-29 08:11:00,
2013-01-29 03:16:00,49.7,48.9,30.04,WSW,253,2.0,5.0,97,0.00,,,0.00,WeatherCatV1.10B1784,2013-01-29 08:16:00,
2013-01-29 03:21:00,49.7,48.9,30.05,WSW,238,3.0,6.0,97,0.00,,,0.00,WeatherCatV1.10B1784,2013-01-29 08:21:00,
2013-01-29 03:26:00,49.5,48.7,30.05,West,263,3.0,5.0,97,0.00,,,0.00,WeatherCatV1.10B1784,2013-01-29 08:26:00,
2013-01-29 03:31:00,49.6,48.8,30.04,WSW,258,4.0,5.0,97,0.00,,,0.00,WeatherCatV1.10B1784,2013-01-29 08:31:00,
2013-01-29 03:36:00,49.5,49.0,30.04,WSW,238,6.0,6.0,98,0.00,,,0.00,WeatherCatV1.10B1784,2013-01-29 08:36:00,
2013-01-29 03:41:00,49.5,49.0,30.04,WSW,243,4.0,5.0,98,0.00,,,0.00,WeatherCatV1.10B1784,2013-01-29 08:41:00,
2013-01-29 03:46:00,49.5,49.0,30.04,West,259,2.0,4.0,98,0.00,,,0.00,WeatherCatV1.10B1784,2013-01-29 08:46:00,
2013-01-29 03:51:00,49.6,49.1,30.04,WSW,250,4.0,6.0,98,0.00,,,0.00,WeatherCatV1.10B1784,2013-01-29 08:51:00,
2013-01-29 03:56:00,49.6,49.1,30.04,West,259,3.0,5.0,98,0.00,,,0.00,WeatherCatV1.10B1784,2013-01-29 08:56:00,
2013-01-29 04:01:00,49.6,49.1,30.04,West,260,3.0,4.0,98,0.00,,,0.00,WeatherCatV1.10B1784,2013-01-29 09:01:00,
2013-01-29 04:06:00,49.7,49.2,30.04,WSW,255,2.0,6.0,98,0.00,,,0.00,WeatherCatV1.10B1784,2013-01-29 09:06:00,
2013-01-29 04:11:00,49.6,49.1,30.04,WSW,257,2.0,2.0,98,0.00,,,0.00,WeatherCatV1.10B1784,2013-01-29 09:11:00,
2013-01-29 04:16:00,49.6,49.1,30.04,West,280,2.0,4.0,98,0.00,,,0.00,WeatherCatV1.10B1784,2013-01-29 09:16:00,
2013-01-29 04:21:00,49.6,49.1,30.04,WSW,253,2.0,3.0,98,0.00,,,0.01,WeatherCatV1.10B1784,2013-01-29 09:21:00,
2013-01-29 04:26:00,49.6,49.1,30.04,WNW,283,2.0,2.0,98,0.00,,,0.01,WeatherCatV1.10B1784,2013-01-29 09:26:00,
2013-01-29 04:31:00,49.6,49.1,30.04,West,277,3.0,5.0,98,0.00,,,0.01,WeatherCatV1.10B1784,2013-01-29 09:31:00,
2013-01-29 04:36:00,49.6,49.1,30.04,WSW,250,2.0,5.0,98,0.00,,,0.01,WeatherCatV1.10B1784,2013-01-29 09:36:00,
2013-01-29 04:41:00,49.5,49.0,30.04,WSW,240,2.0,4.0,98,0.00,,,0.01,WeatherCatV1.10B1784,2013-01-29 09:41:00,
2013-01-29 04:46:00,49.5,49.0,30.04,WSW,253,2.0,2.0,98,0.00,,,0.01,WeatherCatV1.10B1784,2013-01-29 09:46:00,
2013-01-29 04:51:00,49.5,49.0,30.05,WSW,256,2.0,2.0,98,0.00,,,0.01,WeatherCatV1.10B1784,2013-01-29 09:51:00,
2013-01-29 04:56:00,49.5,49.0,30.04,SW,232,1.0,2.0,98,0.00,,,0.01,WeatherCatV1.10B1784,2013-01-29 09:56:00,
2013-01-29 05:01:00,49.4,48.9,30.04,SW,231,1.0,2.0,98,0.00,,,0.01,WeatherCatV1.10B1784,2013-01-29 10:01:00,
2013-01-29 05:06:00,49.6,49.1,30.04,SSW,200,0.0,0.0,98,0.00,,,0.01,WeatherCatV1.10B1784,2013-01-29 10:06:00,
2013-01-29 05:11:00,49.6,49.1,30.04,West,274,0.0,1.0,98,0.00,,,0.01,WeatherCatV1.10B1784,2013-01-29 10:11:00,
2013-01-29 05:16:00,49.3,48.8,30.05,West,274,1.0,2.0,98,0.00,,,0.01,WeatherCatV1.10B1784,2013-01-29 10:16:00,
2013-01-29 05:21:00,49.3,48.8,30.04,West,266,0.0,0.0,98,0.00,,,0.01,WeatherCatV1.10B1784,2013-01-29 10:21:00,
2013-01-29 05:26:00,49.4,48.9,30.03,West,266,0.0,0.0,98,0.00,,,0.01,WeatherCatV1.10B1784,2013-01-29 10:26:00,
2013-01-29 05:31:00,49.0,48.5,30.03,SSW,207,0.0,1.0,98,0.00,,,0.01,WeatherCatV1.10B1784,2013-01-29 10:31:00,
2013-01-29 05:36:00,49.1,48.6,30.03,SSW,207,0.0,0.0,98,0.00,,,0.01,WeatherCatV1.10B1784,2013-01-29 10:36:00,
2013-01-29 05:41:00,49.2,48.7,30.03,SSW,207,0.0,1.0,98,0.00,,,0.01,WeatherCatV1.10B1784,2013-01-29 10:41:00,
2013-01-29 05:46:00,49.1,48.6,30.03,SSW,207,0.0,0.0,98,0.00,,,0.01,WeatherCatV1.10B1784,2013-01-29 10:46:00,
2013-01-29 05:51:00,49.1,48.6,30.03,SSW,207,0.0,0.0,98,0.00,,,0.01,WeatherCatV1.10B1784,2013-01-29 10:51:00,
2013-01-29 05:56:00,49.1,48.6,30.02,SSW,207,0.0,0.0,98,0.00,,,0.01,WeatherCatV1.10B1784,2013-01-29 10:56:00,
2013-01-29 06:01:00,48.6,48.1,30.02,SSW,207,0.0,0.0,98,0.00,,,0.01,WeatherCatV1.10B1784,2013-01-29 11:01:00,
2013-01-29 06:06:00,48.2,47.4,30.02,SW,215,0.0,0.0,97,0.00,,,0.01,WeatherCatV1.10B1784,2013-01-29 11:06:00,
2013-01-29 06:11:00,48.3,47.8,30.02,SW,215,0.0,1.0,98,0.00,,,0.01,WeatherCatV1.10B1784,2013-01-29 11:11:00,
2013-01-29 06:16:00,48.8,48.3,30.02,SW,235,0.0,1.0,98,0.00,,,0.01,WeatherCatV1.10B1784,2013-01-29 11:16:00,
2013-01-29 06:21:00,48.9,48.4,30.02,WSW,238,0.0,3.0,98,0.00,,,0.01,WeatherCatV1.10B1784,2013-01-29 11:21:00,
2013-01-29 06:26:00,48.7,48.2,30.03,WSW,238,0.0,1.0,98,0.00,,,0.01,WeatherCatV1.10B1784,2013-01-29 11:26:00,
2013-01-29 06:31:00,48.8,48.3,30.03,WSW,238,0.0,1.0,98,0.00,,,0.01,WeatherCatV1.10B1784,2013-01-29 11:31:00,
2013-01-29 06:36:00,48.6,48.1,30.03,WSW,238,0.0,0.0,98,0.00,,,0.01,WeatherCatV1.10B1784,2013-01-29 11:36:00,
2013-01-29 06:41:00,48.7,48.2,30.03,WSW,238,0.0,0.0,98,0.00,,,0.01,WeatherCatV1.10B1784,2013-01-29 11:41:00,
2013-01-29 06:46:00,48.5,48.0,30.02,WSW,238,0.0,0.0,98,0.00,,,0.01,WeatherCatV1.10B1784,2013-01-29 11:46:00,
2013-01-29 06:51:00,48.2,47.7,30.02,SW,221,0.0,0.0,98,0.00,,,0.01,WeatherCatV1.10B1784,2013-01-29 11:51:00,
2013-01-29 06:56:00,48.2,47.7,30.02,SW,219,0.0,0.0,98,0.00,,,0.01,WeatherCatV1.10B1784,2013-01-29 11:56:00,
2013-01-29 07:01:00,48.2,47.7,30.03,SW,229,0.0,0.0,98,0.00,,,0.01,WeatherCatV1.10B1784,2013-01-29 12:01:00,
2013-01-29 07:06:00,48.9,48.4,30.03,SW,226,1.0,1.0,98,0.00,,,0.01,WeatherCatV1.10B1784,2013-01-29 12:06:00,
2013-01-29 07:11:00,49.1,48.6,30.03,WSW,246,1.0,1.0,98,0.00,,,0.01,WeatherCatV1.10B1784,2013-01-29 12:11:00,
2013-01-29 07:16:00,49.2,48.7,30.03,WSW,239,1.0,1.0,98,0.00,,,0.01,WeatherCatV1.10B1784,2013-01-29 12:16:00,
2013-01-29 07:21:00,49.4,48.9,30.03,WSW,251,1.0,1.0,98,0.00,,,0.01,WeatherCatV1.10B1784,2013-01-29 12:21:00,
2013-01-29 07:26:00,49.4,48.9,30.03,SW,228,2.0,3.0,98,0.00,,,0.01,WeatherCatV1.10B1784,2013-01-29 12:26:00,
2013-01-29 07:31:00,49.3,48.8,30.03,West,259,4.0,4.0,98,0.00,,,0.01,WeatherCatV1.10B1784,2013-01-29 12:31:00,
2013-01-29 07:36:00,49.4,48.9,30.03,WSW,258,1.0,2.0,98,0.00,,,0.01,WeatherCatV1.10B1784,2013-01-29 12:36:00,
2013-01-29 07:41:00,49.5,49.0,30.03,SSW,212,0.0,2.0,98,0.00,,,0.01,WeatherCatV1.10B1784,2013-01-29 12:41:00,
2013-01-29 07:46:00,49.6,49.1,30.03,West,276,1.0,3.0,98,0.00,,,0.01,WeatherCatV1.10B1784,2013-01-29 12:46:00,
2013-01-29 07:51:00,49.8,49.3,30.03,West,262,2.0,2.0,98,0.00,,,0.01,WeatherCatV1.10B1784,2013-01-29 12:51:00,
2013-01-29 07:56:00,49.7,49.2,30.03,WSW,253,1.0,3.0,98,0.00,,,0.01,WeatherCatV1.10B1784,2013-01-29 12:56:00,
2013-01-29 08:01:00,49.9,49.4,30.03,West,262,1.0,3.0,98,0.00,,,0.01,WeatherCatV1.10B1784,2013-01-29 13:01:00,
2013-01-29 08:06:00,49.7,49.2,30.03,SW,225,0.0,5.0,98,0.00,,,0.01,WeatherCatV1.10B1784,2013-01-29 13:06:00,
2013-01-29 08:11:00,49.9,49.4,30.03,WNW,283,1.0,1.0,98,0.00,,,0.01,WeatherCatV1.10B1784,2013-01-29 13:11:00,
2013-01-29 08:16:00,50.3,49.8,30.03,SW,215,0.0,1.0,98,0.00,,,0.01,WeatherCatV1.10B1784,2013-01-29 13:16:00,
2013-01-29 08:21:00,50.4,49.9,30.03,WSW,243,1.0,2.0,98,0.00,,,0.01,WeatherCatV1.10B1784,2013-01-29 13:21:00,
2013-01-29 08:26:00,50.7,50.2,30.03,SW,225,1.0,1.0,98,0.00,,,0.01,WeatherCatV1.10B1784,2013-01-29 13:26:00,
2013-01-29 08:31:00,50.5,50.0,30.03,SW,226,2.0,2.0,98,0.00,,,0.01,WeatherCatV1.10B1784,2013-01-29 13:31:00,
2013-01-29 08:36:00,50.5,50.0,30.03,SSW,212,1.0,2.0,98,0.00,,,0.01,WeatherCatV1.10B1784,2013-01-29 13:36:00,
2013-01-29 08:41:00,50.6,50.1,30.03,West,281,3.0,5.0,98,0.00,,,0.01,WeatherCatV1.10B1784,2013-01-29 13:41:00,
2013-01-29 08:46:00,50.9,50.4,30.03,SW,228,2.0,4.0,98,0.00,,,0.01,WeatherCatV1.10B1784,2013-01-29 13:46:00,
2013-01-29 08:51:00,51.2,50.7,30.03,SW,229,3.0,4.0,98,0.00,,,0.01,WeatherCatV1.10B1784,2013-01-29 13:51:00,
2013-01-29 08:56:00,51.2,50.7,30.03,SSW,203,2.0,3.0,98,0.00,,,0.01,WeatherCatV1.10B1784,2013-01-29 13:56:00,
2013-01-29 09:01:00,51.2,50.7,30.03,SW,232,2.0,4.0,98,0.00,,,0.01,WeatherCatV1.10B1784,2013-01-29 14:01:00,
2013-01-29 09:06:00,51.3,50.8,30.03,SW,217,5.0,6.0,98,0.00,,,0.01,WeatherCatV1.10B1784,2013-01-29 14:06:00,
2013-01-29 09:11:00,51.4,50.9,30.03,SW,218,1.0,1.0,98,0.00,,,0.01,WeatherCatV1.10B1784,2013-01-29 14:11:00,
2013-01-29 09:16:00,51.4,50.9,30.03,SSW,193,2.0,3.0,98,0.00,,,0.01,WeatherCatV1.10B1784,2013-01-29 14:16:00,
2013-01-29 09:21:00,51.4,50.9,30.03,SSW,211,2.0,2.0,98,0.00,,,0.01,WeatherCatV1.10B1784,2013-01-29 14:21:00,
2013-01-29 09:26:00,51.5,51.0,30.03,SW,222,2.0,5.0,98,0.00,,,0.01,WeatherCatV1.10B1784,2013-01-29 14:26:00,
2013-01-29 09:31:00,51.6,51.1,30.03,SSW,207,5.0,7.0,98,0.00,,,0.01,WeatherCatV1.10B1784,2013-01-29 14:31:00,
2013-01-29 09:36:00,51.6,51.1,30.02,SW,216,2.0,5.0,98,0.00,,,0.01,WeatherCatV1.10B1784,2013-01-29 14:36:00,
2013-01-29 09:41:00,51.7,51.2,30.02,WSW,244,5.0,5.0,98,0.00,,,0.01,WeatherCatV1.10B1784,2013-01-29 14:41:00,
2013-01-29 09:46:00,51.8,51.3,30.02,WSW,238,3.0,5.0,98,0.00,,,0.01,WeatherCatV1.10B1784,2013-01-29 14:46:00,
2013-01-29 09:51:00,51.8,51.3,30.02,SSE,163,1.0,4.0,98,0.00,,,0.01,WeatherCatV1.10B1784,2013-01-29 14:51:00,
2013-01-29 09:56:00,51.9,51.4,30.02,SSW,194,1.0,4.0,98,0.00,,,0.01,WeatherCatV1.10B1784,2013-01-29 14:56:00,
2013-01-29 10:01:00,52.0,51.5,30.02,SE,129,1.0,4.0,98,0.00,,,0.01,WeatherCatV1.10B1784,2013-01-29 15:01:00,
2013-01-29 10:06:00,52.1,51.6,30.01,SSW,192,0.0,5.0,98,0.00,,,0.01,WeatherCatV1.10B1784,2013-01-29 15:06:00,
2013-01-29 10:11:00,52.2,51.7,30.02,SSE,148,3.0,3.0,98,0.00,,,0.01,WeatherCatV1.10B1784,2013-01-29 15:11:00,
2013-01-29 10:16:00,52.4,51.8,30.01,SE,140,5.0,5.0,98,0.00,,,0.01,WeatherCatV1.10B1784,2013-01-29 15:16:00,
2013-01-29 10:21:00,52.5,52.0,30.01,SSW,208,4.0,7.0,98,0.00,,,0.01,WeatherCatV1.10B1784,2013-01-29 15:21:00,
2013-01-29 10:26:00,52.6,52.0,30.00,SSE,163,3.0,5.0,98,0.00,,,0.01,WeatherCatV1.10B1784,2013-01-29 15:26:00,
2013-01-29 10:31:00,52.8,52.2,30.00,SSE,168,3.0,3.0,98,0.00,,,0.01,WeatherCatV1.10B1784,2013-01-29 15:31:00,
2013-01-29 10:36:00,53.1,52.5,30.00,SSW,203,2.0,5.0,98,0.00,,,0.01,WeatherCatV1.10B1784,2013-01-29 15:36:00,
2013-01-29 10:41:00,53.2,52.6,30.01,SSW,200,2.0,5.0,98,0.00,,,0.01,WeatherCatV1.10B1784,2013-01-29 15:41:00,
2013-01-29 10:46:00,53.3,52.7,30.00,SW,234,3.0,5.0,98,0.00,,,0.01,WeatherCatV1.10B1784,2013-01-29 15:46:00,
2013-01-29 10:51:00,53.6,53.0,29.99,South,186,8.0,9.0,98,0.00,,,0.01,WeatherCatV1.10B1784,2013-01-29 15:51:00,
2013-01-29 10:56:00,53.8,53.2,29.99,SSW,205,2.0,3.0,98,0.00,,,0.01,WeatherCatV1.10B1784,2013-01-29 15:56:00,
2013-01-29 11:01:00,54.1,53.5,30.00,SSE,162,4.0,4.0,98,0.00,,,0.01,WeatherCatV1.10B1784,2013-01-29 16:01:00,
2013-01-29 11:06:00,54.3,53.7,30.00,West,259,1.0,4.0,98,0.00,,,0.01,WeatherCatV1.10B1784,2013-01-29 16:06:00,
2013-01-29 11:11:00,54.6,54.0,30.00,SW,215,8.0,9.0,98,0.00,,,0.01,WeatherCatV1.10B1784,2013-01-29 16:11:00,
2013-01-29 11:16:00,54.9,54.3,30.00,SE,134,2.0,5.0,98,0.00,,,0.01,WeatherCatV1.10B1784,2013-01-29 16:16:00,
2013-01-29 11:21:00,55.3,54.7,29.99,SSE,150,1.0,4.0,98,0.00,,,0.01,WeatherCatV1.10B1784,2013-01-29 16:21:00,
2013-01-29 11:26:00,55.6,54.8,29.99,South,191,3.0,4.0,97,0.00,,,0.01,WeatherCatV1.10B1784,2013-01-29 16:26:00,
2013-01-29 11:31:00,55.9,55.1,29.99,SSW,205,5.0,8.0,97,0.00,,,0.01,WeatherCatV1.10B1784,2013-01-29 16:31:00,
2013-01-29 11:36:00,56.2,55.1,29.99,WSW,256,2.0,5.0,96,0.00,,,0.01,WeatherCatV1.10B1784,2013-01-29 16:36:00,
2013-01-29 11:41:00,56.6,55.2,29.98,SSW,192,2.0,7.0,95,0.00,,,0.01,WeatherCatV1.10B1784,2013-01-29 16:41:00,
2013-01-29 11:46:00,57.0,55.3,29.98,SSE,148,1.0,4.0,94,0.00,,,0.01,WeatherCatV1.10B1784,2013-01-29 16:46:00,
2013-01-29 11:51:00,57.4,55.4,29.97,WSW,255,5.0,8.0,93,0.00,,,0.01,WeatherCatV1.10B1784,2013-01-29 16:51:00,
2013-01-29 11:56:00,57.8,55.5,29.97,West,259,4.0,5.0,92,0.00,,,0.01,WeatherCatV1.10B1784,2013-01-29 16:56:00,
2013-01-29 12:01:00,58.3,55.4,29.97,SSW,203,3.0,8.0,90,0.00,,,0.01,WeatherCatV1.10B1784,2013-01-29 17:01:00,
2013-01-29 12:06:00,58.6,55.1,29.96,SW,225,8.0,14.0,88,0.00,,,0.01,WeatherCatV1.10B1784,2013-01-29 17:06:00,
2013-01-29 12:11:00,58.7,54.8,29.96,SW,226,5.0,14.0,87,0.00,,,0.02,WeatherCatV1.10B1784,2013-01-29 17:11:00,
2013-01-29 12:16:00,59.2,55.3,29.96,WSW,238,5.0,12.0,87,0.00,,,0.02,WeatherCatV1.10B1784,2013-01-29 17:16:00,
2013-01-29 12:21:00,59.5,55.3,29.95,West,273,7.0,14.0,86,0.00,,,0.02,WeatherCatV1.10B1784,2013-01-29 17:21:00,
2013-01-29 12:26:00,59.8,55.3,29.95,SSW,210,12.0,12.0,85,0.00,,,0.02,WeatherCatV1.10B1784,2013-01-29 17:26:00,
2013-01-29 12:31:00,60.1,54.9,29.95,SSW,207,7.0,17.0,83,0.00,,,0.02,WeatherCatV1.10B1784,2013-01-29 17:31:00,
2013-01-29 12:36:00,60.4,54.9,29.95,WSW,249,7.0,19.0,82,0.00,,,0.02,WeatherCatV1.10B1784,2013-01-29 17:36:00,
2013-01-29 12:41:00,60.5,54.6,29.95,SW,218,6.0,18.0,81,0.00,,,0.02,WeatherCatV1.10B1784,2013-01-29 17:41:00,
2013-01-29 12:46:00,60.6,55.1,29.95,SW,217,5.0,9.0,82,0.00,,,0.02,WeatherCatV1.10B1784,2013-01-29 17:46:00,
2013-01-29 12:51:00,60.6,54.7,29.94,SSW,205,4.0,8.0,81,0.00,,,0.02,WeatherCatV1.10B1784,2013-01-29 17:51:00,
2013-01-29 12:56:00,60.6,54.7,29.94,SW,225,6.0,11.0,81,0.00,,,0.02,WeatherCatV1.10B1784,2013-01-29 17:56:00,
2013-01-29 13:01:00,60.5,54.6,29.94,WSW,243,5.0,14.0,81,0.00,,,0.02,WeatherCatV1.10B1784,2013-01-29 18:01:00,
2013-01-29 13:06:00,60.4,54.9,29.94,WSW,257,6.0,12.0,82,0.00,,,0.02,WeatherCatV1.10B1784,2013-01-29 18:06:00,
2013-01-29 13:11:00,60.3,54.8,29.94,South,174,10.0,13.0,82,0.00,,,0.02,WeatherCatV1.10B1784,2013-01-29 18:11:00,
2013-01-29 13:16:00,60.3,54.8,29.93,WSW,250,4.0,6.0,82,0.00,,,0.02,WeatherCatV1.10B1784,2013-01-29 18:16:00,
2013-01-29 13:21:00,60.3,55.1,29.93,SSW,212,3.0,5.0,83,0.00,,,0.02,WeatherCatV1.10B1784,2013-01-29 18:21:00,
2013-01-29 13:26:00,60.1,54.9,29.93,WSW,243,7.0,9.0,83,0.00,,,0.02,WeatherCatV1.10B1784,2013-01-29 18:26:00,
2013-01-29 13:31:00,59.9,55.4,29.93,WSW,241,3.0,7.0,85,0.00,,,0.02,WeatherCatV1.10B1784,2013-01-29 18:31:00,
2013-01-29 13:36:00,59.7,55.5,29.93,SW,226,6.0,6.0,86,0.00,,,0.02,WeatherCatV1.10B1784,2013-01-29 18:36:00,
2013-01-29 13:41:00,59.8,55.6,29.92,SW,223,9.0,9.0,86,0.00,,,0.02,WeatherCatV1.10B1784,2013-01-29 18:41:00,
2013-01-29 13:46:00,60.0,55.5,29.92,SW,225,4.0,7.0,85,0.00,,,0.02,WeatherCatV1.10B1784,2013-01-29 18:46:00,
2013-01-29 13:51:00,60.1,55.6,29.92,SW,226,15.0,15.0,85,0.00,,,0.02,WeatherCatV1.10B1784,2013-01-29 18:51:00,
2013-01-29 13:56:00,60.5,55.6,29.92,SW,218,3.0,5.0,84,0.00,,,0.02,WeatherCatV1.10B1784,2013-01-29 18:56:00,
2013-01-29 14:01:00,60.8,55.9,29.91,SW,226,4.0,10.0,84,0.00,,,0.02,WeatherCatV1.10B1784,2013-01-29 19:01:00,
2013-01-29 14:07:00,61.1,56.2,29.91,SW,222,3.0,4.0,84,0.00,,,0.02,WeatherCatV1.10B1784,2013-01-29 19:07:00,
2013-01-29 14:12:00,61.4,56.2,29.90,SSW,204,3.0,5.0,83,0.00,,,0.02,WeatherCatV1.10B1784,2013-01-29 19:12:00,
2013-01-29 14:17:00,61.6,56.4,29.90,South,169,8.0,9.0,83,0.00,,,0.02,WeatherCatV1.10B1784,2013-01-29 19:17:00,
2013-01-29 14:22:00,61.8,56.2,29.90,WSW,249,5.0,6.0,82,0.00,,,0.02,WeatherCatV1.10B1784,2013-01-29 19:22:00,
2013-01-29 14:27:00,62.0,56.4,29.90,SSW,207,2.0,8.0,82,0.00,,,0.02,WeatherCatV1.10B1784,2013-01-29 19:27:00,
2013-01-29 14:32:00,62.2,56.6,29.90,West,259,2.0,3.0,82,0.00,,,0.02,WeatherCatV1.10B1784,2013-01-29 19:32:00,
2013-01-29 14:37:00,62.3,56.4,29.90,SW,216,2.0,13.0,81,0.00,,,0.02,WeatherCatV1.10B1784,2013-01-29 19:37:00,
2013-01-29 14:42:00,62.4,56.5,29.90,SW,229,10.0,10.0,81,0.00,,,0.02,WeatherCatV1.10B1784,2013-01-29 19:42:00,
2013-01-29 14:47:00,62.4,56.5,29.90,SW,216,4.0,13.0,81,0.00,,,0.02,WeatherCatV1.10B1784,2013-01-29 19:47:00,
2013-01-29 14:52:00,62.5,56.2,29.90,West,266,4.0,11.0,80,0.00,,,0.02,WeatherCatV1.10B1784,2013-01-29 19:52:00,
2013-01-29 14:57:00,62.5,56.2,29.90,West,277,2.0,6.0,80,0.00,,,0.02,WeatherCatV1.10B1784,2013-01-29 19:57:00,
2013-01-29 15:02:00,62.5,56.2,29.89,SW,226,4.0,7.0,80,0.00,,,0.02,WeatherCatV1.10B1784,2013-01-29 20:02:00,
2013-01-29 15:07:00,62.5,56.2,29.89,SW,235,5.0,10.0,80,0.00,,,0.02,WeatherCatV1.10B1784,2013-01-29 20:07:00,
2013-01-29 15:12:00,62.6,56.3,29.88,SW,216,4.0,8.0,80,0.00,,,0.02,WeatherCatV1.10B1784,2013-01-29 20:12:00,
2013-01-29 15:17:00,62.6,56.3,29.89,South,170,5.0,7.0,80,0.00,,,0.02,WeatherCatV1.10B1784,2013-01-29 20:17:00,
2013-01-29 15:22:00,62.7,56.1,29.88,SW,222,7.0,9.0,79,0.00,,,0.02,WeatherCatV1.10B1784,2013-01-29 20:22:00,
2013-01-29 15:27:00,62.8,56.2,29.89,SSW,203,7.0,12.0,79,0.00,,,0.02,WeatherCatV1.10B1784,2013-01-29 20:27:00,
2013-01-29 15:32:00,62.8,56.2,29.89,West,260,4.0,4.0,79,0.00,,,0.02,WeatherCatV1.10B1784,2013-01-29 20:32:00,
2013-01-29 15:37:00,62.9,56.3,29.89,WSW,243,1.0,1.0,79,0.00,,,0.02,WeatherCatV1.10B1784,2013-01-29 20:37:00,
2013-01-29 15:42:00,62.9,55.9,29.89,WSW,257,3.0,5.0,78,0.00,,,0.02,WeatherCatV1.10B1784,2013-01-29 20:42:00,
2013-01-29 15:47:00,62.9,55.9,29.89,WSW,238,3.0,5.0,78,0.00,,,0.02,WeatherCatV1.10B1784,2013-01-29 20:47:00,
2013-01-29 15:52:00,63.0,56.0,29.89,SSW,212,0.0,1.0,78,0.00,,,0.02,WeatherCatV1.10B1784,2013-01-29 20:52:00,
2013-01-29 15:57:00,63.2,56.2,29.89,West,268,1.0,1.0,78,0.00,,,0.02,WeatherCatV1.10B1784,2013-01-29 20:57:00,
2013-01-29 16:02:00,63.2,56.2,29.89,NW,324,1.0,1.0,78,0.00,,,0.02,WeatherCatV1.10B1784,2013-01-29 21:02:00,
2013-01-29 16:07:00,63.2,56.2,29.90,North,356,1.0,2.0,78,0.00,,,0.02,WeatherCatV1.10B1784,2013-01-29 21:07:00,
2013-01-29 16:12:00,63.2,56.2,29.90,NNW,330,1.0,1.0,78,0.00,,,0.02,WeatherCatV1.10B1784,2013-01-29 21:12:00,
2013-01-29 16:17:00,63.2,56.2,29.90,NNW,333,0.0,0.0,78,0.00,,,0.02,WeatherCatV1.10B1784,2013-01-29 21:17:00,
2013-01-29 16:22:00,63.2,56.6,29.89,SE,146,0.0,1.0,79,0.00,,,0.02,WeatherCatV1.10B1784,2013-01-29 21:22:00,
2013-01-29 16:27:00,62.7,56.8,29.89,SE,145,0.0,0.0,81,0.00,,,0.02,WeatherCatV1.10B1784,2013-01-29 21:27:00,
2013-01-29 16:32:00,62.5,56.9,29.89,SE,145,0.0,0.0,82,0.00,,,0.02,WeatherCatV1.10B1784,2013-01-29 21:32:00,
2013-01-29 16:37:00,62.5,56.9,29.89,SE,146,0.0,0.0,82,0.00,,,0.02,WeatherCatV1.10B1784,2013-01-29 21:37:00,
2013-01-29 16:42:00,62.3,56.7,29.89,SE,145,0.0,0.0,82,0.00,,,0.02,WeatherCatV1.10B1784,2013-01-29 21:42:00,
2013-01-29 16:47:00,61.8,56.2,29.89,WSW,256,1.0,1.0,82,0.00,,,0.02,WeatherCatV1.10B1784,2013-01-29 21:47:00,
2013-01-29 16:52:00,61.2,56.0,29.89,WSW,256,0.0,1.0,83,0.00,,,0.02,WeatherCatV1.10B1784,2013-01-29 21:52:00,
2013-01-29 16:57:00,61.0,56.1,29.88,WSW,256,0.0,0.0,84,0.00,,,0.02,WeatherCatV1.10B1784,2013-01-29 21:57:00,
2013-01-29 17:02:00,61.0,56.5,29.89,WSW,256,0.0,0.0,85,0.00,,,0.02,WeatherCatV1.10B1784,2013-01-29 22:02:00,
2013-01-29 17:07:00,60.7,56.2,29.88,WSW,255,0.0,0.0,85,0.00,,,0.02,WeatherCatV1.10B1784,2013-01-29 22:07:00,
2013-01-29 17:12:00,60.3,55.8,29.88,WSW,256,0.0,0.0,85,0.00,,,0.02,WeatherCatV1.10B1784,2013-01-29 22:12:00,
2013-01-29 17:17:00,60.1,55.6,29.88,WSW,256,0.0,0.0,85,0.00,,,0.02,WeatherCatV1.10B1784,2013-01-29 22:17:00,
2013-01-29 17:22:00,59.7,55.2,29.88,WSW,256,0.0,0.0,85,0.00,,,0.02,WeatherCatV1.10B1784,2013-01-29 22:22:00,
2013-01-29 17:27:00,59.0,54.8,29.88,West,260,0.0,1.0,86,0.00,,,0.02,WeatherCatV1.10B1784,2013-01-29 22:27:00,
2013-01-29 17:32:00,58.2,54.3,29.88,WSW,240,0.0,0.0,87,0.00,,,0.02,WeatherCatV1.10B1784,2013-01-29 22:32:00,
2013-01-29 17:37:00,57.8,54.6,29.88,WSW,240,0.0,0.0,89,0.00,,,0.02,WeatherCatV1.10B1784,2013-01-29 22:37:00,
2013-01-29 17:42:00,57.5,54.3,29.88,WSW,240,1.0,1.0,89,0.00,,,0.02,WeatherCatV1.10B1784,2013-01-29 22:42:00,
2013-01-29 17:47:00,56.9,54.0,29.87,WSW,240,0.0,0.0,90,0.00,,,0.02,WeatherCatV1.10B1784,2013-01-29 22:47:00,
2013-01-29 17:52:00,56.7,53.8,29.87,WSW,240,0.0,0.0,90,0.00,,,0.02,WeatherCatV1.10B1784,2013-01-29 22:52:00,
2013-01-29 17:57:00,56.2,53.3,29.86,West,280,1.0,2.0,90,0.00,,,0.02,WeatherCatV1.10B1784,2013-01-29 22:57:00,
2013-01-29 18:02:00,56.0,53.4,29.87,West,271,1.0,2.0,91,0.00,,,0.02,WeatherCatV1.10B1784,2013-01-29 23:02:00,
2013-01-29 18:07:00,55.4,52.8,29.86,WSW,243,1.0,1.0,91,0.00,,,0.02,WeatherCatV1.10B1784,2013-01-29 23:07:00,
2013-01-29 18:12:00,55.1,52.8,29.86,WSW,243,1.0,1.0,92,0.00,,,0.02,WeatherCatV1.10B1784,2013-01-29 23:12:00,
2013-01-29 18:17:00,54.6,52.3,29.86,West,275,1.0,1.0,92,0.00,,,0.02,WeatherCatV1.10B1784,2013-01-29 23:17:00,
2013-01-29 18:22:00,54.2,51.9,29.86,WSW,257,1.0,1.0,92,0.00,,,0.02,WeatherCatV1.10B1784,2013-01-29 23:22:00,
2013-01-29 18:27:00,53.6,51.3,29.86,WSW,243,1.0,1.0,92,0.00,,,0.02,WeatherCatV1.10B1784,2013-01-29 23:27:00,
2013-01-29 18:32:00,53.4,51.4,29.86,WSW,250,1.0,1.0,93,0.00,,,0.02,WeatherCatV1.10B1784,2013-01-29 23:32:00,
2013-01-29 18:37:00,53.2,51.2,29.86,WSW,248,0.0,1.0,93,0.00,,,0.02,WeatherCatV1.10B1784,2013-01-29 23:37:00,
2013-01-29 18:42:00,53.0,51.0,29.86,WSW,248,1.0,1.0,93,0.00,,,0.02,WeatherCatV1.10B1784,2013-01-29 23:42:00,
2013-01-29 18:47:00,52.8,50.8,29.86,West,260,1.0,2.0,93,0.00,,,0.02,WeatherCatV1.10B1784,2013-01-29 23:47:00,
2013-01-29 18:52:00,52.7,51.0,29.86,West,262,1.0,1.0,94,0.00,,,0.02,WeatherCatV1.10B1784,2013-01-29 23:52:00,
2013-01-29 18:57:00,52.3,50.3,29.85,WSW,243,0.0,1.0,93,0.00,,,0.02,WeatherCatV1.10B1784,2013-01-29 23:57:00,
2013-01-29 19:02:00,52.0,50.3,29.85,West,263,0.0,1.0,94,0.00,,,0.02,WeatherCatV1.10B1784,2013-01-30 00:02:00,
2013-01-29 19:07:00,52.1,50.4,29.85,SW,231,0.0,2.0,94,0.00,,,0.02,WeatherCatV1.10B1784,2013-01-30 00:07:00,
2013-01-29 19:12:00,51.9,50.2,29.85,WSW,242,0.0,1.0,94,0.00,,,0.02,WeatherCatV1.10B1784,2013-01-30 00:12:00,
2013-01-29 19:17:00,51.9,50.5,29.85,West,278,1.0,1.0,95,0.00,,,0.02,WeatherCatV1.10B1784,2013-01-30 00:17:00,
2013-01-29 19:22:00,51.7,50.3,29.85,WSW,245,0.0,1.0,95,0.00,,,0.02,WeatherCatV1.10B1784,2013-01-30 00:22:00,
2013-01-29 19:27:00,51.4,49.7,29.85,West,262,1.0,2.0,94,0.00,,,0.02,WeatherCatV1.10B1784,2013-01-30 00:27:00,
2013-01-29 19:32:00,51.6,50.2,29.85,West,266,2.0,2.0,95,0.00,,,0.02,WeatherCatV1.10B1784,2013-01-30 00:32:00,
2013-01-29 19:37:00,51.6,50.2,29.85,SW,235,2.0,2.0,95,0.00,,,0.02,WeatherCatV1.10B1784,2013-01-30 00:37:00,
2013-01-29 19:42:00,51.6,50.2,29.85,WSW,250,1.0,1.0,95,0.00,,,0.02,WeatherCatV1.10B1784,2013-01-30 00:42:00,
2013-01-29 19:47:00,51.0,49.3,29.85,West,276,0.0,1.0,94,0.00,,,0.02,WeatherCatV1.10B1784,2013-01-30 00:47:00,
2013-01-29 19:52:00,51.2,49.8,29.84,West,276,0.0,0.0,95,0.00,,,0.02,WeatherCatV1.10B1784,2013-01-30 00:52:00,
2013-01-29 19:57:00,51.0,49.6,29.84,West,276,1.0,1.0,95,0.00,,,0.02,WeatherCatV1.10B1784,2013-01-30 00:57:00,
2013-01-29 20:02:00,51.0,49.6,29.84,West,273,0.0,2.0,95,0.00,,,0.02,WeatherCatV1.10B1784,2013-01-30 01:02:00,
2013-01-29 20:07:00,51.1,49.7,29.83,West,269,0.0,1.0,95,0.00,,,0.02,WeatherCatV1.10B1784,2013-01-30 01:07:00,
2013-01-29 20:12:00,50.9,49.5,29.83,WSW,246,0.0,2.0,95,0.00,,,0.02,WeatherCatV1.10B1784,2013-01-30 01:12:00,
2013-01-29 20:17:00,50.7,49.3,29.83,SW,235,0.0,1.0,95,0.00,,,0.02,WeatherCatV1.10B1784,2013-01-30 01:17:00,
2013-01-29 20:22:00,50.6,49.2,29.83,WSW,245,1.0,1.0,95,0.00,,,0.02,WeatherCatV1.10B1784,2013-01-30 01:22:00,
2013-01-29 20:27:00,51.0,49.9,29.83,SW,228,0.0,1.0,96,0.00,,,0.02,WeatherCatV1.10B1784,2013-01-30 01:27:00,
2013-01-29 20:32:00,50.8,49.4,29.83,WSW,245,0.0,1.0,95,0.00,,,0.02,WeatherCatV1.10B1784,2013-01-30 01:32:00,
2013-01-29 20:37:00,50.8,49.4,29.83,SSW,207,0.0,0.0,95,0.00,,,0.02,WeatherCatV1.10B1784,2013-01-30 01:37:00,
2013-01-29 20:42:00,51.1,50.0,29.83,SSW,212,0.0,1.0,96,0.00,,,0.02,WeatherCatV1.10B1784,2013-01-30 01:42:00,
2013-01-29 20:47:00,50.8,49.4,29.83,SSW,212,0.0,0.0,95,0.00,,,0.02,WeatherCatV1.10B1784,2013-01-30 01:47:00,
2013-01-29 20:52:00,50.8,49.4,29.83,SSW,213,0.0,0.0,95,0.00,,,0.02,WeatherCatV1.10B1784,2013-01-30 01:52:00,
2013-01-29 20:57:00,51.1,50.0,29.83,SSW,212,0.0,1.0,96,0.00,,,0.02,WeatherCatV1.10B1784,2013-01-30 01:57:00,
2013-01-29 21:02:00,51.0,49.6,29.83,West,281,2.0,3.0,95,0.00,,,0.02,WeatherCatV1.10B1784,2013-01-30 02:02:00,
2013-01-29 21:07:00,51.1,49.7,29.83,West,273,1.0,2.0,95,0.00,,,0.02,WeatherCatV1.10B1784,2013-01-30 02:07:00,
2013-01-29 21:12:00,51.2,49.8,29.83,NW,316,1.0,1.0,95,0.00,,,0.02,WeatherCatV1.10B1784,2013-01-30 02:12:00,
2013-01-29 21:17:00,51.3,50.2,29.83,WSW,256,0.0,1.0,96,0.00,,,0.02,WeatherCatV1.10B1784,2013-01-30 02:17:00,
2013-01-29 21:22:00,50.9,49.5,29.83,WSW,248,1.0,1.0,95,0.00,,,0.02,WeatherCatV1.10B1784,2013-01-30 02:22:00,
2013-01-29 21:27:00,50.7,49.3,29.84,WSW,245,1.0,1.0,95,0.00,,,0.02,WeatherCatV1.10B1784,2013-01-30 02:27:00,
2013-01-29 21:32:00,50.6,49.2,29.83,WSW,238,0.0,2.0,95,0.00,,,0.02,WeatherCatV1.10B1784,2013-01-30 02:32:00,
2013-01-29 21:37:00,52.0,51.2,29.83,WSW,246,1.0,2.0,97,0.00,,,0.02,WeatherCatV1.10B1784,2013-01-30 02:37:00,
2013-01-29 21:42:00,51.8,49.3,29.84,WSW,255,2.0,3.0,91,0.00,,,0.02,WeatherCatV1.10B1784,2013-01-30 02:42:00,
2013-01-29 21:47:00,53.0,51.0,29.84,WSW,245,1.0,2.0,93,0.00,,,0.02,WeatherCatV1.10B1784,2013-01-30 02:47:00,
2013-01-29 21:52:00,54.9,52.0,29.84,WSW,249,3.0,5.0,90,0.00,,,0.02,WeatherCatV1.10B1784,2013-01-30 02:52:00,
2013-01-29 21:57:00,55.8,52.3,29.84,SW,235,2.0,3.0,88,0.00,,,0.02,WeatherCatV1.10B1784,2013-01-30 02:57:00,
2013-01-29 22:02:00,56.2,51.7,29.84,SW,235,3.0,3.0,85,0.00,,,0.02,WeatherCatV1.10B1784,2013-01-30 03:02:00,
2013-01-29 22:07:00,56.8,52.0,29.84,WSW,238,3.0,5.0,84,0.00,,,0.02,WeatherCatV1.10B1784,2013-01-30 03:07:00,
2013-01-29 22:12:00,57.2,52.1,29.83,SE,145,1.0,2.0,83,0.00,,,0.02,WeatherCatV1.10B1784,2013-01-30 03:12:00,
2013-01-29 22:17:00,56.8,51.7,29.82,South,179,2.0,3.0,83,0.00,,,0.02,WeatherCatV1.10B1784,2013-01-30 03:17:00,
2013-01-29 22:22:00,56.6,51.8,29.82,SSE,163,1.0,3.0,84,0.00,,,0.02,WeatherCatV1.10B1784,2013-01-30 03:22:00,
2013-01-29 22:27:00,56.9,51.8,29.81,SW,228,4.0,5.0,83,0.00,,,0.02,WeatherCatV1.10B1784,2013-01-30 03:27:00,
2013-01-29 22:32:00,57.2,52.1,29.81,SSW,197,2.0,3.0,83,0.00,,,0.02,WeatherCatV1.10B1784,2013-01-30 03:32:00,
2013-01-29 22:37:00,57.9,52.4,29.81,SSW,203,2.0,2.0,82,0.00,,,0.02,WeatherCatV1.10B1784,2013-01-30 03:37:00,
2013-01-29 22:42:00,58.1,52.3,29.81,SSW,203,1.0,3.0,81,0.00,,,0.02,WeatherCatV1.10B1784,2013-01-30 03:42:00,
2013-01-29 22:47:00,58.2,52.4,29.80,SSW,194,2.0,4.0,81,0.00,,,0.02,WeatherCatV1.10B1784,2013-01-30 03:47:00,
2013-01-29 22:52:00,58.0,52.2,29.80,SSW,197,3.0,4.0,81,0.00,,,0.02,WeatherCatV1.10B1784,2013-01-30 03:52:00,
2013-01-29 22:57:00,57.9,52.1,29.80,South,183,1.0,3.0,81,0.00,,,0.02,WeatherCatV1.10B1784,2013-01-30 03:57:00,
2013-01-29 23:02:00,57.9,52.1,29.80,South,176,1.0,4.0,81,0.00,,,0.02,WeatherCatV1.10B1784,2013-01-30 04:02:00,
2013-01-29 23:07:00,58.0,52.2,29.79,SSE,148,2.0,4.0,81,0.00,,,0.02,WeatherCatV1.10B1784,2013-01-30 04:07:00,
2013-01-29 23:12:00,58.4,52.6,29.79,SW,225,1.0,4.0,81,0.00,,,0.02,WeatherCatV1.10B1784,2013-01-30 04:12:00,
2013-01-29 23:17:00,58.6,52.1,29.79,SW,215,1.0,4.0,79,0.00,,,0.02,WeatherCatV1.10B1784,2013-01-30 04:17:00,
2013-01-29 23:22:00,58.6,52.4,29.79,SW,219,1.0,2.0,80,0.00,,,0.02,WeatherCatV1.10B1784,2013-01-30 04:22:00,
2013-01-29 23:27:00,58.9,52.7,29.78,SE,133,2.0,2.0,80,0.00,,,0.02,WeatherCatV1.10B1784,2013-01-30 04:27:00,
2013-01-29 23:32:00,59.1,52.2,29.78,South,188,2.0,3.0,78,0.00,,,0.02,WeatherCatV1.10B1784,2013-01-30 04:32:00,
2013-01-29 23:37:00,59.2,52.7,29.77,SSE,155,2.0,3.0,79,0.00,,,0.02,WeatherCatV1.10B1784,2013-01-30 04:37:00,
2013-01-29 23:42:00,59.3,52.4,29.77,SE,143,1.0,3.0,78,0.00,,,0.02,WeatherCatV1.10B1784,2013-01-30 04:42:00,
2013-01-29 23:47:00,59.5,52.6,29.77,SSE,152,1.0,2.0,78,0.00,,,0.02,WeatherCatV1.10B1784,2013-01-30 04:47:00,
2013-01-29 23:52:00,59.6,52.7,29.77,SSW,212,1.0,2.0,78,0.00,,,0.02,WeatherCatV1.10B1784,2013-01-30 04:52:00,
2013-01-29 23:57:00,59.4,52.2,29.77,South,188,1.0,2.0,77,0.00,,,0.02,WeatherCatV1.10B1784,2013-01-30 04:57:00,